• Join FlightAware (Why Join?)
  • Login
  • US Flag 
Rudolph Flight #1: Arrived! 
05:25AM EST


 

Airport Tracker/Info


-or-


 

Live Flight TrackerFlight Track Log ✈ BJS339 ✈ 05-Jun-2014 ✈ KGSP - KBOS

Flight Track Log - Related Links

Times and Time Zones

All times are in EDT time to prevent confusion due to time zone crossing. See the BJS339 flight status page for this flight to view local times or setup timezone preferences in your user account.

Time Position Orientation Groundspeed Altitude Reporting Facility
EDT Latitude Longitude Course Direction KTS MPH feet Rate Location/Type
11:13AM 34.8397 -82.2825 147° Southeast 221 254 5,000  Level Atlanta Center
11:14AM 34.7892 -82.2431 147° Southeast 227 261 7,700 3,060 Climbing Atlanta Center
11:15AM 34.8278 -82.1714 57° Northeast 169 194 11,200 3,060 Climbing Atlanta Center
11:16AM 34.8914 -82.1017 42° Northeast 197 227 13,900 1,380 Climbing Atlanta Center
11:17AM 34.9692 -82.0086 44° Northeast 295 339 14,000 660 Climbing Atlanta Center
11:18AM 35.0297 -81.8981 56° Northeast 343 395 15,300 1,980 Climbing Atlanta Center
11:19AM 35.0883 -81.7897 57° Northeast 370 426 18,000 2,520 Climbing Atlanta Center
11:20AM 35.1447 -81.6817 57° Northeast 400 460 20,400 2,160 Climbing Atlanta Center
11:21AM 35.2072 -81.5656 57° Northeast 406 467 22,400 1,800 Climbing Atlanta Center
11:22AM 35.2714 -81.4439 57° Northeast 417 480 24,100 1,740 Climbing Atlanta Center
11:23AM 35.3375 -81.3197 57° Northeast 423 487 25,900 1,680 Climbing Atlanta Center
11:24AM 35.4056 -81.1900 57° Northeast 435 501 27,500 1,260 Climbing Atlanta Center
11:25AM 35.4756 -81.0575 57° Northeast 447 514 28,500 960 Climbing Atlanta Center
11:26AM 35.5494 -80.9222 56° Northeast 459 528 29,500 960 Climbing Atlanta Center
11:27AM 35.6231 -80.7839 57° Northeast 467 537 30,500 1,020 Climbing Atlanta Center
11:28AM 35.6964 -80.6456 57° Northeast 478 550 31,600 1,140 Climbing Atlanta Center
11:29AM 35.7694 -80.5042 57° Northeast 478 550 32,800 1,440 Climbing Atlanta Center
11:30AM 35.8428 -80.3653 57° Northeast 478 550 34,500 1,680 Climbing Atlanta Center
11:31AM 35.9136 -80.2314 57° Northeast 478 550 36,200 1,440 Climbing Atlanta Center
11:33AM 36.0733 -79.9300 57° Northeast 418 481 39,600 1,200 Climbing Washington Center
11:34AM 36.1458 -79.8258 49° Northeast 406 467 40,400 180 Climbing Washington Center
11:35AM 36.2317 -79.6967 50° Northeast 422 486 40,000 -660 Descending Washington Center
11:36AM 36.3000 -79.5894 52° Northeast 434 499 39,100 -540 Descending Washington Center
11:37AM 36.3792 -79.4694 51° Northeast 440 506 39,000 -60 Descending Washington Center
11:38AM 36.4561 -79.3469 52° Northeast 445 512 39,000  Level Washington Center
11:39AM 36.5458 -79.2114 50° Northeast 460 529 39,000  Level Washington Center
11:40AM 36.6222 -79.1011 49° Northeast 466 536 39,000  Level Washington Center
11:41AM 36.7119 -78.9497 53° Northeast 479 551 39,000  Level Washington Center
11:42AM 36.7992 -78.8161 51° Northeast 484 557 39,000  Level Washington Center
11:43AM 36.8819 -78.6819 52° Northeast 494 568 39,000  Level Washington Center
11:44AM 36.9708 -78.5450 51° Northeast 494 568 39,000  Level Washington Center
11:45AM 37.0597 -78.4081 51° Northeast 501 577 39,000  Level Washington Center
11:46AM 37.1442 -78.2731 52° Northeast 501 577 39,000  Level Washington Center
11:47AM 37.2242 -78.1481 51° Northeast 501 577 39,000  Level Washington Center
11:48AM 37.3083 -78.0072 53° Northeast 501 577 39,000  Level Washington Center
11:49AM 37.3925 -77.8739 52° Northeast 496 571 39,000  Level Washington Center
11:50AM 37.4761 -77.7403 52° Northeast 496 571 39,000  Level Washington Center
11:51AM 37.5619 -77.6039 52° Northeast 496 571 39,000  Level Washington Center
11:52AM 37.6475 -77.4672 52° Northeast 496 571 39,000  Level Washington Center
11:53AM 37.7289 -77.3325 53° Northeast 491 565 39,000  Level Washington Center
11:54AM 37.8122 -77.1925 53° Northeast 491 565 39,000  Level Washington Center
11:55AM 37.8953 -77.0522 53° Northeast 491 565 39,000  Level Washington Center
11:56AM 37.9825 -76.9142 51° Northeast 497 572 39,000  Level Washington Center
11:57AM 38.0653 -76.7681 54° Northeast 497 572 39,000  Level Washington Center
11:58AM 38.1519 -76.6267 52° Northeast 497 572 39,000  Level Washington Center
11:59AM 38.2367 -76.4853 53° Northeast 497 572 39,000  Level Washington Center
12:00PM 38.3292 -76.3567 47° Northeast 497 572 39,000  Level Washington Center
12:01PM 38.4403 -76.2569 35° Northeast 480 552 39,000  Level Washington Center
12:02PM 38.5514 -76.1492 37° Northeast 485 558 39,000  Level Washington Center
12:03PM 38.6664 -76.0622 31° Northeast 490 564 39,000  Level Washington Center
12:04PM 38.7836 -75.9697 32° Northeast 490 564 39,000  Level Washington Center
12:05PM 38.8983 -75.8825 31° Northeast 485 558 39,000  Level Washington Center
12:06PM 39.0111 -75.7947 31° Northeast 480 552 39,000  Level Washington Center
12:07PM 39.1300 -75.7067 30° Northeast 480 552 39,000  Level Washington Center
12:08PM 39.2425 -75.6158 32° Northeast 480 552 39,000 -420 Level Washington Center
12:09PM 39.3592 -75.5244 31° Northeast 480 552 38,200 -780 Descending Washington Center
12:11PM 39.5697 -75.3628 31° Northeast 489 563 37,000 -480 Descending New York Center
12:12PM 39.6758 -75.2564 38° Northeast 477 549 37,000  Level New York Center
12:13PM 39.7600 -75.1294 49° Northeast 496 571 37,000  Level New York Center
12:14PM 39.8544 -74.9947 48° Northeast 507 583 37,000  Level New York Center
12:15PM 39.9447 -74.8567 50° Northeast 514 592 37,000  Level New York Center
12:16PM 40.0458 -74.7081 48° Northeast 516 594 37,000  Level New York Center
12:17PM 40.1358 -74.5692 50° Northeast 497 572 37,000 -300 Level New York Center
12:18PM 40.2211 -74.4406 49° Northeast 492 566 36,500 -960 Descending New York Center
12:19PM 40.3131 -74.2986 50° Northeast 504 580 35,100 -1,380 Descending New York Center
12:20PM 40.4047 -74.1561 50° Northeast 511 588 33,800 -1,380 Descending New York Center
12:22PM 40.6097 -73.8361 50° Northeast 514 592 30,700 -1,440 Descending Boston Center
12:23PM 40.7136 -73.6725 50° Northeast 518 596 29,100 -1,380 Descending Boston Center
12:24PM 40.7950 -73.5444 50° Northeast 519 597 27,900 -1,080 Descending Boston Center
12:25PM 40.8842 -73.4028 50° Northeast 503 579 27,000 -780 Descending Boston Center
12:26PM 40.9892 -73.2486 48° Northeast 492 566 26,400 -1,020 Descending Boston Center
12:27PM 41.0811 -73.1119 48° Northeast 498 573 25,000 -1,320 Descending Boston Center
12:28PM 41.1697 -72.9800 48° Northeast 489 563 23,800 -1,020 Descending Boston Center
12:29PM 41.2317 -72.8300 61° Northeast 471 542 23,000 -420 Descending Boston Center
12:30PM 41.2942 -72.6567 64° Northeast 469 540 23,000  Level Boston Center
12:31PM 41.3514 -72.4967 64° Northeast 473 544 23,000  Level Boston Center
12:32PM 41.4075 -72.3383 65° Northeast 473 544 23,000  Level Boston Center
12:33PM 41.4414 -72.1842 74° East 433 498 23,000 -1,080 Level Boston Center
12:34PM 41.4644 -72.0389 78° East 404 465 20,900 -2,400 Descending Boston Center
12:35PM 41.4872 -71.8842 79° East 374 430 18,200 -2,700 Descending Boston Center
12:36PM 41.5078 -71.7453 79° East 359 413 15,400 -2,580 Descending Boston Center
12:38PM 41.5281 -71.6236 77° East 340 391 13,000 -2,160 Descending Boston Center
12:39PM 41.5511 -71.5136 74° East 312 359 11,000 -1,020 Descending Boston Center
12:40PM 41.6283 -71.4347 37° Northeast 328 377 11,000  Level Boston Center
12:41PM 41.7031 -71.3683 34° Northeast 328 377 11,000 -300 Level Boston Center
12:42PM 41.7833 -71.2969 34° Northeast 327 376 10,400 -1,080 Descending Boston Center
12:43PM 41.8617 -71.2503 24° Northeast 312 359 8,900 -1,200 Descending Boston Center
12:44PM 41.9414 -71.2108 20° North 310 357 8,000 -1,020 Descending Boston Center
12:45PM 42.0269 -71.1689 20° North 308 354 6,900 -1,080 Descending Boston Center
12:46PM 42.1028 -71.1333 19° North 295 339 5,800 -1,080 Descending Boston Center
12:47PM 42.1631 -71.1042 20° North 231 266 4,700 -1,440 Descending Boston Center
12:48PM 42.2150 -71.0767 21° North 193 222 2,900 -1,320 Descending Boston Center
12:49PM 42.2594 -71.0561 19° North 173 199 2,100 -840 Descending Boston Center
12:50PM 42.2986 -71.0386 18° North 158 182 1,300 -780 Descending Boston Center
12:51PM 42.3306 -71.0228 20° North 124 143 600 -480 Descending Boston Center
12:52PM 42.3561 -71.0089 22° Northeast 121 139 400 -240 Descending Boston Center
12:54PM 42.3500 -71.0000 North  Level FlightAware Approximate